sensor_id;sensor_type;location;lat;lon;timestamp;temperature;humidity
5061;DHT22;2549;52.128;21.068;2023-12-14T00:00:25;7.30;99.90
5061;DHT22;2549;52.128;21.068;2023-12-14T00:02:53;7.30;99.90
5061;DHT22;2549;52.128;21.068;2023-12-14T00:05:19;7.20;99.90
5061;DHT22;2549;52.128;21.068;2023-12-14T00:07:46;7.20;99.90
5061;DHT22;2549;52.128;21.068;2023-12-14T00:10:13;7.20;99.90
5061;DHT22;2549;52.128;21.068;2023-12-14T00:12:40;7.20;99.90
5061;DHT22;2549;52.128;21.068;2023-12-14T00:15:07;7.20;99.90
5061;DHT22;2549;52.128;21.068;2023-12-14T00:17:34;7.20;99.90
5061;DHT22;2549;52.128;21.068;2023-12-14T00:20:01;7.20;99.90
5061;DHT22;2549;52.128;21.068;2023-12-14T00:22:29;7.20;99.90
5061;DHT22;2549;52.128;21.068;2023-12-14T00:24:56;7.20;99.90
5061;DHT22;2549;52.128;21.068;2023-12-14T00:27:23;7.20;99.90
5061;DHT22;2549;52.128;21.068;2023-12-14T00:29:50;7.20;99.90
5061;DHT22;2549;52.128;21.068;2023-12-14T00:32:17;7.20;99.90
5061;DHT22;2549;52.128;21.068;2023-12-14T00:34:44;7.20;99.90
5061;DHT22;2549;52.128;21.068;2023-12-14T00:37:11;7.10;99.90
5061;DHT22;2549;52.128;21.068;2023-12-14T00:39:38;7.10;99.90
5061;DHT22;2549;52.128;21.068;2023-12-14T00:42:05;7.10;99.90
5061;DHT22;2549;52.128;21.068;2023-12-14T00:44:31;7.00;99.90
5061;DHT22;2549;52.128;21.068;2023-12-14T00:46:58;7.00;99.90
5061;DHT22;2549;52.128;21.068;2023-12-14T00:49:28;7.00;99.90
5061;DHT22;2549;52.128;21.068;2023-12-14T00:51:55;7.00;99.90
5061;DHT22;2549;52.128;21.068;2023-12-14T00:54:25;7.00;99.90
5061;DHT22;2549;52.128;21.068;2023-12-14T00:56:52;6.90;99.90
5061;DHT22;2549;52.128;21.068;2023-12-14T00:59:19;6.90;99.90
5061;DHT22;2549;52.128;21.068;2023-12-14T01:01:46;6.90;99.90
5061;DHT22;2549;52.128;21.068;2023-12-14T01:04:13;7.00;99.90
5061;DHT22;2549;52.128;21.068;2023-12-14T01:06:40;6.90;99.90
5061;DHT22;2549;52.128;21.068;2023-12-14T01:09:07;6.90;99.90
5061;DHT22;2549;52.128;21.068;2023-12-14T01:11:34;6.90;99.90
5061;DHT22;2549;52.128;21.068;2023-12-14T01:14:01;6.70;99.90
5061;DHT22;2549;52.128;21.068;2023-12-14T01:16:29;6.80;99.90
5061;DHT22;2549;52.128;21.068;2023-12-14T01:18:56;6.70;99.90
5061;DHT22;2549;52.128;21.068;2023-12-14T01:21:23;6.70;99.90
5061;DHT22;2549;52.128;21.068;2023-12-14T01:23:50;6.70;99.90
5061;DHT22;2549;52.128;21.068;2023-12-14T01:26:18;6.70;99.90
5061;DHT22;2549;52.128;21.068;2023-12-14T01:28:45;6.70;99.90
5061;DHT22;2549;52.128;21.068;2023-12-14T01:31:12;6.70;99.90
5061;DHT22;2549;52.128;21.068;2023-12-14T01:33:39;6.50;99.90
5061;DHT22;2549;52.128;21.068;2023-12-14T01:36:06;6.60;99.90
5061;DHT22;2549;52.128;21.068;2023-12-14T01:38:33;6.50;99.90
5061;DHT22;2549;52.128;21.068;2023-12-14T01:41:00;6.50;99.90
5061;DHT22;2549;52.128;21.068;2023-12-14T01:43:27;6.50;99.90
5061;DHT22;2549;52.128;21.068;2023-12-14T01:45:54;6.50;99.90
5061;DHT22;2549;52.128;21.068;2023-12-14T01:48:21;6.50;99.90
5061;DHT22;2549;52.128;21.068;2023-12-14T01:50:48;6.60;99.90
5061;DHT22;2549;52.128;21.068;2023-12-14T01:53:16;6.60;99.90
5061;DHT22;2549;52.128;21.068;2023-12-14T01:55:43;6.70;99.90
5061;DHT22;2549;52.128;21.068;2023-12-14T01:58:10;6.70;99.90
5061;DHT22;2549;52.128;21.068;2023-12-14T02:03:17;6.70;99.90
5061;DHT22;2549;52.128;21.068;2023-12-14T02:05:44;6.70;99.90
5061;DHT22;2549;52.128;21.068;2023-12-14T02:08:10;6.70;99.90
5061;DHT22;2549;52.128;21.068;2023-12-14T02:10:37;6.70;99.90
5061;DHT22;2549;52.128;21.068;2023-12-14T02:13:04;6.70;99.90
5061;DHT22;2549;52.128;21.068;2023-12-14T02:15:33;6.70;99.90
5061;DHT22;2549;52.128;21.068;2023-12-14T02:18:00;6.70;99.90
5061;DHT22;2549;52.128;21.068;2023-12-14T02:20:27;6.70;99.90
5061;DHT22;2549;52.128;21.068;2023-12-14T02:22:54;6.80;99.90
5061;DHT22;2549;52.128;21.068;2023-12-14T02:25:22;6.80;99.90
5061;DHT22;2549;52.128;21.068;2023-12-14T02:27:50;6.80;99.90
5061;DHT22;2549;52.128;21.068;2023-12-14T02:30:18;6.70;99.90
5061;DHT22;2549;52.128;21.068;2023-12-14T02:32:45;6.70;99.90
5061;DHT22;2549;52.128;21.068;2023-12-14T02:35:12;6.60;99.90
5061;DHT22;2549;52.128;21.068;2023-12-14T02:37:39;6.50;99.90
5061;DHT22;2549;52.128;21.068;2023-12-14T02:40:10;6.40;99.90
5061;DHT22;2549;52.128;21.068;2023-12-14T02:42:37;6.50;99.90
5061;DHT22;2549;52.128;21.068;2023-12-14T02:45:04;6.50;99.90
5061;DHT22;2549;52.128;21.068;2023-12-14T02:47:31;6.50;99.90
5061;DHT22;2549;52.128;21.068;2023-12-14T02:50:00;6.60;99.90
5061;DHT22;2549;52.128;21.068;2023-12-14T02:52:27;6.60;99.90
5061;DHT22;2549;52.128;21.068;2023-12-14T02:54:54;6.60;99.90
5061;DHT22;2549;52.128;21.068;2023-12-14T02:57:21;6.60;99.90
5061;DHT22;2549;52.128;21.068;2023-12-14T02:59:48;6.50;99.90
5061;DHT22;2549;52.128;21.068;2023-12-14T03:02:15;6.50;99.90
5061;DHT22;2549;52.128;21.068;2023-12-14T03:04:41;6.50;99.90
5061;DHT22;2549;52.128;21.068;2023-12-14T03:07:09;6.60;99.90
5061;DHT22;2549;52.128;21.068;2023-12-14T03:09:39;6.60;99.90
5061;DHT22;2549;52.128;21.068;2023-12-14T03:12:08;6.60;99.90
5061;DHT22;2549;52.128;21.068;2023-12-14T03:14:34;6.60;99.90
5061;DHT22;2549;52.128;21.068;2023-12-14T03:17:01;6.70;99.90
5061;DHT22;2549;52.128;21.068;2023-12-14T03:19:29;6.70;99.90
5061;DHT22;2549;52.128;21.068;2023-12-14T03:21:55;6.70;99.90
5061;DHT22;2549;52.128;21.068;2023-12-14T03:24:22;6.70;99.90
5061;DHT22;2549;52.128;21.068;2023-12-14T03:26:49;6.80;99.90
5061;DHT22;2549;52.128;21.068;2023-12-14T03:29:18;6.80;99.90
5061;DHT22;2549;52.128;21.068;2023-12-14T03:31:45;6.80;99.90
5061;DHT22;2549;52.128;21.068;2023-12-14T03:34:12;6.80;99.90
5061;DHT22;2549;52.128;21.068;2023-12-14T03:36:39;6.70;99.90
5061;DHT22;2549;52.128;21.068;2023-12-14T03:39:06;6.70;99.90
5061;DHT22;2549;52.128;21.068;2023-12-14T03:41:33;6.70;99.90
5061;DHT22;2549;52.128;21.068;2023-12-14T03:44:00;6.70;99.90
5061;DHT22;2549;52.128;21.068;2023-12-14T03:46:27;6.70;99.90
5061;DHT22;2549;52.128;21.068;2023-12-14T03:48:53;6.70;99.90
5061;DHT22;2549;52.128;21.068;2023-12-14T03:51:21;6.70;99.90
5061;DHT22;2549;52.128;21.068;2023-12-14T03:53:47;6.70;99.90
5061;DHT22;2549;52.128;21.068;2023-12-14T03:56:14;6.60;99.90
5061;DHT22;2549;52.128;21.068;2023-12-14T03:58:41;6.60;99.90
5061;DHT22;2549;52.128;21.068;2023-12-14T04:01:16;6.70;99.90
5061;DHT22;2549;52.128;21.068;2023-12-14T04:03:43;6.70;99.90
5061;DHT22;2549;52.128;21.068;2023-12-14T04:06:11;6.70;99.90
5061;DHT22;2549;52.128;21.068;2023-12-14T04:08:38;6.70;99.90
5061;DHT22;2549;52.128;21.068;2023-12-14T04:11:06;6.70;99.90
5061;DHT22;2549;52.128;21.068;2023-12-14T04:13:33;6.60;99.90
5061;DHT22;2549;52.128;21.068;2023-12-14T04:16:00;6.60;99.90
5061;DHT22;2549;52.128;21.068;2023-12-14T04:18:27;6.50;99.90
5061;DHT22;2549;52.128;21.068;2023-12-14T04:20:55;6.50;99.90
5061;DHT22;2549;52.128;21.068;2023-12-14T04:23:22;6.50;99.90
5061;DHT22;2549;52.128;21.068;2023-12-14T04:25:51;6.50;99.90
5061;DHT22;2549;52.128;21.068;2023-12-14T04:28:18;6.60;99.90
5061;DHT22;2549;52.128;21.068;2023-12-14T04:30:45;6.60;99.90
5061;DHT22;2549;52.128;21.068;2023-12-14T04:33:11;6.60;99.90
5061;DHT22;2549;52.128;21.068;2023-12-14T04:35:38;6.60;99.90
5061;DHT22;2549;52.128;21.068;2023-12-14T04:38:05;6.70;99.90
5061;DHT22;2549;52.128;21.068;2023-12-14T04:40:32;6.70;99.90
5061;DHT22;2549;52.128;21.068;2023-12-14T04:43:00;6.70;99.90
5061;DHT22;2549;52.128;21.068;2023-12-14T04:45:26;6.70;99.90
5061;DHT22;2549;52.128;21.068;2023-12-14T04:47:53;6.70;99.90
5061;DHT22;2549;52.128;21.068;2023-12-14T04:50:20;6.70;99.90
5061;DHT22;2549;52.128;21.068;2023-12-14T04:52:47;6.70;99.90
5061;DHT22;2549;52.128;21.068;2023-12-14T04:55:14;6.60;99.90
5061;DHT22;2549;52.128;21.068;2023-12-14T04:57:41;6.50;99.90
5061;DHT22;2549;52.128;21.068;2023-12-14T05:00:08;6.50;99.90
5061;DHT22;2549;52.128;21.068;2023-12-14T05:02:39;6.50;99.90
5061;DHT22;2549;52.128;21.068;2023-12-14T05:05:05;6.50;99.90
5061;DHT22;2549;52.128;21.068;2023-12-14T05:07:33;6.50;99.90
5061;DHT22;2549;52.128;21.068;2023-12-14T05:10:00;6.50;99.90
5061;DHT22;2549;52.128;21.068;2023-12-14T05:12:27;6.60;99.90
5061;DHT22;2549;52.128;21.068;2023-12-14T05:14:55;6.60;99.90
5061;DHT22;2549;52.128;21.068;2023-12-14T05:17:22;6.60;99.90
5061;DHT22;2549;52.128;21.068;2023-12-14T05:19:49;6.60;99.90
5061;DHT22;2549;52.128;21.068;2023-12-14T05:22:16;6.60;99.90
5061;DHT22;2549;52.128;21.068;2023-12-14T05:24:47;6.70;99.90
5061;DHT22;2549;52.128;21.068;2023-12-14T05:27:14;6.60;99.90
5061;DHT22;2549;52.128;21.068;2023-12-14T05:29:41;6.60;99.90
5061;DHT22;2549;52.128;21.068;2023-12-14T05:32:08;6.60;99.90
5061;DHT22;2549;52.128;21.068;2023-12-14T05:34:35;6.60;99.90
5061;DHT22;2549;52.128;21.068;2023-12-14T05:37:02;6.60;99.90
5061;DHT22;2549;52.128;21.068;2023-12-14T05:39:29;6.60;99.90
5061;DHT22;2549;52.128;21.068;2023-12-14T05:41:56;6.60;99.90
5061;DHT22;2549;52.128;21.068;2023-12-14T05:44:23;6.60;99.90
5061;DHT22;2549;52.128;21.068;2023-12-14T05:46:50;6.70;99.90
5061;DHT22;2549;52.128;21.068;2023-12-14T05:49:16;6.60;99.90
5061;DHT22;2549;52.128;21.068;2023-12-14T05:51:43;6.60;99.90
5061;DHT22;2549;52.128;21.068;2023-12-14T05:54:10;6.60;99.90
5061;DHT22;2549;52.128;21.068;2023-12-14T05:56:37;6.60;99.90
5061;DHT22;2549;52.128;21.068;2023-12-14T05:59:06;6.60;99.90
5061;DHT22;2549;52.128;21.068;2023-12-14T06:01:33;6.70;99.90
5061;DHT22;2549;52.128;21.068;2023-12-14T06:04:00;6.70;99.90
5061;DHT22;2549;52.128;21.068;2023-12-14T06:06:27;6.70;99.90
5061;DHT22;2549;52.128;21.068;2023-12-14T06:08:54;6.70;99.90
5061;DHT22;2549;52.128;21.068;2023-12-14T06:11:20;6.70;99.90
5061;DHT22;2549;52.128;21.068;2023-12-14T06:13:47;6.70;99.90
5061;DHT22;2549;52.128;21.068;2023-12-14T06:16:15;6.70;99.90
5061;DHT22;2549;52.128;21.068;2023-12-14T06:18:42;6.80;99.90
5061;DHT22;2549;52.128;21.068;2023-12-14T06:21:11;6.70;99.90
5061;DHT22;2549;52.128;21.068;2023-12-14T06:23:39;6.70;99.90
5061;DHT22;2549;52.128;21.068;2023-12-14T06:26:06;6.70;99.90
5061;DHT22;2549;52.128;21.068;2023-12-14T06:28:33;6.70;99.90
5061;DHT22;2549;52.128;21.068;2023-12-14T06:31:00;6.70;99.90
5061;DHT22;2549;52.128;21.068;2023-12-14T06:33:28;6.70;99.90
5061;DHT22;2549;52.128;21.068;2023-12-14T06:35:55;6.70;99.90
5061;DHT22;2549;52.128;21.068;2023-12-14T06:38:22;6.70;99.90
5061;DHT22;2549;52.128;21.068;2023-12-14T06:40:49;6.60;99.90
5061;DHT22;2549;52.128;21.068;2023-12-14T06:43:16;6.60;99.90
5061;DHT22;2549;52.128;21.068;2023-12-14T06:45:43;6.60;99.90
5061;DHT22;2549;52.128;21.068;2023-12-14T06:48:10;6.60;99.90
5061;DHT22;2549;52.128;21.068;2023-12-14T06:50:37;6.60;99.90
5061;DHT22;2549;52.128;21.068;2023-12-14T06:53:04;6.60;99.90
5061;DHT22;2549;52.128;21.068;2023-12-14T06:55:32;6.60;99.90
5061;DHT22;2549;52.128;21.068;2023-12-14T06:57:58;6.60;99.90
5061;DHT22;2549;52.128;21.068;2023-12-14T07:00:25;6.60;99.90
5061;DHT22;2549;52.128;21.068;2023-12-14T07:02:52;6.60;99.90
5061;DHT22;2549;52.128;21.068;2023-12-14T07:05:19;6.60;99.90
5061;DHT22;2549;52.128;21.068;2023-12-14T07:07:47;6.60;99.90
5061;DHT22;2549;52.128;21.068;2023-12-14T07:10:13;6.60;99.90
5061;DHT22;2549;52.128;21.068;2023-12-14T07:12:41;6.60;99.90
5061;DHT22;2549;52.128;21.068;2023-12-14T07:15:08;6.70;99.90
5061;DHT22;2549;52.128;21.068;2023-12-14T07:17:35;6.70;99.90
5061;DHT22;2549;52.128;21.068;2023-12-14T07:20:02;6.70;99.90
5061;DHT22;2549;52.128;21.068;2023-12-14T07:22:29;6.70;99.90
5061;DHT22;2549;52.128;21.068;2023-12-14T07:24:56;6.70;99.90
5061;DHT22;2549;52.128;21.068;2023-12-14T07:27:26;6.70;99.90
5061;DHT22;2549;52.128;21.068;2023-12-14T07:29:53;6.70;99.90
5061;DHT22;2549;52.128;21.068;2023-12-14T07:32:20;6.70;99.90
5061;DHT22;2549;52.128;21.068;2023-12-14T07:34:48;6.70;99.90
5061;DHT22;2549;52.128;21.068;2023-12-14T07:37:14;6.60;99.90
5061;DHT22;2549;52.128;21.068;2023-12-14T07:39:41;6.70;99.90
5061;DHT22;2549;52.128;21.068;2023-12-14T07:42:08;6.70;99.90
5061;DHT22;2549;52.128;21.068;2023-12-14T07:44:35;6.70;99.90
5061;DHT22;2549;52.128;21.068;2023-12-14T07:47:02;6.70;99.90
5061;DHT22;2549;52.128;21.068;2023-12-14T07:49:29;6.70;99.90
5061;DHT22;2549;52.128;21.068;2023-12-14T07:51:56;6.70;99.90
5061;DHT22;2549;52.128;21.068;2023-12-14T07:54:23;6.70;99.90
5061;DHT22;2549;52.128;21.068;2023-12-14T07:56:52;6.70;99.90
5061;DHT22;2549;52.128;21.068;2023-12-14T07:59:19;6.70;99.90
5061;DHT22;2549;52.128;21.068;2023-12-14T08:01:47;6.70;99.90
5061;DHT22;2549;52.128;21.068;2023-12-14T08:04:14;6.70;99.90
5061;DHT22;2549;52.128;21.068;2023-12-14T08:06:41;6.70;99.90
5061;DHT22;2549;52.128;21.068;2023-12-14T08:09:11;6.70;99.90
5061;DHT22;2549;52.128;21.068;2023-12-14T08:11:38;6.60;99.90
5061;DHT22;2549;52.128;21.068;2023-12-14T08:14:05;6.60;99.90
5061;DHT22;2549;52.128;21.068;2023-12-14T08:16:31;6.60;99.90
5061;DHT22;2549;52.128;21.068;2023-12-14T08:18:58;6.60;99.90
5061;DHT22;2549;52.128;21.068;2023-12-14T08:21:25;6.60;99.90
5061;DHT22;2549;52.128;21.068;2023-12-14T08:23:52;6.60;99.90
5061;DHT22;2549;52.128;21.068;2023-12-14T08:26:19;6.60;99.90
5061;DHT22;2549;52.128;21.068;2023-12-14T08:28:46;6.60;99.90
5061;DHT22;2549;52.128;21.068;2023-12-14T08:31:13;6.60;99.90
5061;DHT22;2549;52.128;21.068;2023-12-14T08:33:43;6.60;99.90
5061;DHT22;2549;52.128;21.068;2023-12-14T08:36:15;6.60;99.90
5061;DHT22;2549;52.128;21.068;2023-12-14T08:38:43;6.60;99.90
5061;DHT22;2549;52.128;21.068;2023-12-14T08:41:14;6.70;99.90
5061;DHT22;2549;52.128;21.068;2023-12-14T08:43:42;6.60;99.90
5061;DHT22;2549;52.128;21.068;2023-12-14T08:46:09;6.60;99.90
5061;DHT22;2549;52.128;21.068;2023-12-14T08:48:39;6.70;99.90
5061;DHT22;2549;52.128;21.068;2023-12-14T08:51:06;6.70;99.90
5061;DHT22;2549;52.128;21.068;2023-12-14T08:53:33;6.60;99.90
5061;DHT22;2549;52.128;21.068;2023-12-14T08:56:00;6.60;99.90
5061;DHT22;2549;52.128;21.068;2023-12-14T08:58:29;6.70;99.90
5061;DHT22;2549;52.128;21.068;2023-12-14T09:00:56;6.70;99.90
5061;DHT22;2549;52.128;21.068;2023-12-14T09:03:23;6.70;99.90
5061;DHT22;2549;52.128;21.068;2023-12-14T09:05:50;6.70;99.90
5061;DHT22;2549;52.128;21.068;2023-12-14T09:08:17;6.70;99.90
5061;DHT22;2549;52.128;21.068;2023-12-14T09:10:44;6.70;99.90
5061;DHT22;2549;52.128;21.068;2023-12-14T09:13:11;6.60;99.90
5061;DHT22;2549;52.128;21.068;2023-12-14T09:15:38;6.60;99.90
5061;DHT22;2549;52.128;21.068;2023-12-14T09:18:05;6.60;99.90
5061;DHT22;2549;52.128;21.068;2023-12-14T09:20:32;6.60;99.90
5061;DHT22;2549;52.128;21.068;2023-12-14T09:23:01;6.60;99.90
5061;DHT22;2549;52.128;21.068;2023-12-14T09:25:28;6.60;99.90
5061;DHT22;2549;52.128;21.068;2023-12-14T09:27:55;6.70;99.90
5061;DHT22;2549;52.128;21.068;2023-12-14T09:30:22;6.60;99.90
5061;DHT22;2549;52.128;21.068;2023-12-14T09:32:49;6.60;99.90
5061;DHT22;2549;52.128;21.068;2023-12-14T09:35:16;6.60;99.90
5061;DHT22;2549;52.128;21.068;2023-12-14T09:37:45;6.60;99.90
5061;DHT22;2549;52.128;21.068;2023-12-14T09:40:12;6.60;99.90
5061;DHT22;2549;52.128;21.068;2023-12-14T09:42:39;6.70;99.90
5061;DHT22;2549;52.128;21.068;2023-12-14T09:45:09;6.70;99.90
5061;DHT22;2549;52.128;21.068;2023-12-14T09:47:37;6.70;99.90
5061;DHT22;2549;52.128;21.068;2023-12-14T09:50:05;6.70;99.90
5061;DHT22;2549;52.128;21.068;2023-12-14T09:52:33;6.70;99.90
5061;DHT22;2549;52.128;21.068;2023-12-14T09:55:00;6.70;99.90
5061;DHT22;2549;52.128;21.068;2023-12-14T09:57:30;6.70;99.90
5061;DHT22;2549;52.128;21.068;2023-12-14T10:00:00;6.80;99.90
5061;DHT22;2549;52.128;21.068;2023-12-14T10:02:27;6.80;99.90
5061;DHT22;2549;52.128;21.068;2023-12-14T10:04:54;6.80;99.90
5061;DHT22;2549;52.128;21.068;2023-12-14T10:07:22;6.70;99.90
5061;DHT22;2549;52.128;21.068;2023-12-14T10:09:49;6.70;99.90
5061;DHT22;2549;52.128;21.068;2023-12-14T10:12:17;6.70;99.90
5061;DHT22;2549;52.128;21.068;2023-12-14T10:14:44;6.60;99.90
5061;DHT22;2549;52.128;21.068;2023-12-14T10:17:17;6.70;99.90
5061;DHT22;2549;52.128;21.068;2023-12-14T10:19:46;6.70;99.90
5061;DHT22;2549;52.128;21.068;2023-12-14T10:22:14;6.70;99.90
5061;DHT22;2549;52.128;21.068;2023-12-14T10:24:46;6.70;99.90
5061;DHT22;2549;52.128;21.068;2023-12-14T10:27:17;6.80;99.90
5061;DHT22;2549;52.128;21.068;2023-12-14T10:29:44;6.70;99.90
5061;DHT22;2549;52.128;21.068;2023-12-14T10:32:12;6.70;99.90
5061;DHT22;2549;52.128;21.068;2023-12-14T10:34:40;6.70;99.90
5061;DHT22;2549;52.128;21.068;2023-12-14T10:37:09;6.70;99.90
5061;DHT22;2549;52.128;21.068;2023-12-14T10:39:37;6.70;99.90
5061;DHT22;2549;52.128;21.068;2023-12-14T10:42:08;6.70;99.90
5061;DHT22;2549;52.128;21.068;2023-12-14T10:44:45;6.70;99.90
5061;DHT22;2549;52.128;21.068;2023-12-14T10:47:35;6.70;99.90
5061;DHT22;2549;52.128;21.068;2023-12-14T10:50:03;6.70;99.90
5061;DHT22;2549;52.128;21.068;2023-12-14T10:52:32;6.70;99.90
5061;DHT22;2549;52.128;21.068;2023-12-14T10:55:27;6.70;99.90
5061;DHT22;2549;52.128;21.068;2023-12-14T10:57:52;6.60;99.90
5061;DHT22;2549;52.128;21.068;2023-12-14T11:00:20;6.50;99.90
5061;DHT22;2549;52.128;21.068;2023-12-14T11:02:47;6.50;99.90
5061;DHT22;2549;52.128;21.068;2023-12-14T11:05:16;6.50;99.90
5061;DHT22;2549;52.128;21.068;2023-12-14T11:07:59;6.60;99.90
5061;DHT22;2549;52.128;21.068;2023-12-14T11:10:28;6.60;99.90
5061;DHT22;2549;52.128;21.068;2023-12-14T11:13:05;6.60;99.90
5061;DHT22;2549;52.128;21.068;2023-12-14T11:15:34;6.60;99.90
5061;DHT22;2549;52.128;21.068;2023-12-14T11:20:50;6.70;99.90
5061;DHT22;2549;52.128;21.068;2023-12-14T11:23:27;6.70;99.90
5061;DHT22;2549;52.128;21.068;2023-12-14T11:26:00;6.70;99.90
5061;DHT22;2549;52.128;21.068;2023-12-14T11:28:37;6.80;99.90
5061;DHT22;2549;52.128;21.068;2023-12-14T11:31:05;6.80;99.90
5061;DHT22;2549;52.128;21.068;2023-12-14T11:33:35;6.90;99.90
5061;DHT22;2549;52.128;21.068;2023-12-14T11:36:11;6.90;99.90
5061;DHT22;2549;52.128;21.068;2023-12-14T11:38:38;6.90;99.90
5061;DHT22;2549;52.128;21.068;2023-12-14T11:41:05;6.80;99.90
5061;DHT22;2549;52.128;21.068;2023-12-14T11:43:39;6.80;99.90
5061;DHT22;2549;52.128;21.068;2023-12-14T11:46:07;6.80;99.90
5061;DHT22;2549;52.128;21.068;2023-12-14T11:48:34;6.70;99.90
5061;DHT22;2549;52.128;21.068;2023-12-14T11:51:01;6.70;99.90
5061;DHT22;2549;52.128;21.068;2023-12-14T11:53:29;6.80;99.90
5061;DHT22;2549;52.128;21.068;2023-12-14T11:55:56;6.80;99.90
5061;DHT22;2549;52.128;21.068;2023-12-14T11:58:24;6.90;99.90
5061;DHT22;2549;52.128;21.068;2023-12-14T12:00:53;6.90;99.90
5061;DHT22;2549;52.128;21.068;2023-12-14T12:03:21;6.90;99.90
5061;DHT22;2549;52.128;21.068;2023-12-14T12:05:50;6.90;99.90
5061;DHT22;2549;52.128;21.068;2023-12-14T12:08:19;6.90;99.90
5061;DHT22;2549;52.128;21.068;2023-12-14T12:10:48;6.90;99.90
5061;DHT22;2549;52.128;21.068;2023-12-14T12:13:17;6.80;99.90
5061;DHT22;2549;52.128;21.068;2023-12-14T12:15:45;6.80;99.90
5061;DHT22;2549;52.128;21.068;2023-12-14T12:18:15;6.90;99.90
5061;DHT22;2549;52.128;21.068;2023-12-14T12:20:43;6.80;99.90
5061;DHT22;2549;52.128;21.068;2023-12-14T12:23:10;6.80;99.90
5061;DHT22;2549;52.128;21.068;2023-12-14T12:25:37;6.80;99.90
5061;DHT22;2549;52.128;21.068;2023-12-14T12:28:04;6.90;99.90
5061;DHT22;2549;52.128;21.068;2023-12-14T12:30:32;6.90;99.90
5061;DHT22;2549;52.128;21.068;2023-12-14T12:33:00;6.90;99.90
5061;DHT22;2549;52.128;21.068;2023-12-14T12:35:28;6.90;99.90
5061;DHT22;2549;52.128;21.068;2023-12-14T12:37:58;6.90;99.90
5061;DHT22;2549;52.128;21.068;2023-12-14T12:40:25;6.90;99.90
5061;DHT22;2549;52.128;21.068;2023-12-14T12:42:53;6.90;99.90
5061;DHT22;2549;52.128;21.068;2023-12-14T12:45:20;6.90;99.90
5061;DHT22;2549;52.128;21.068;2023-12-14T12:47:54;6.90;99.90
5061;DHT22;2549;52.128;21.068;2023-12-14T12:50:21;6.90;99.90
5061;DHT22;2549;52.128;21.068;2023-12-14T12:52:48;6.90;99.90
5061;DHT22;2549;52.128;21.068;2023-12-14T12:55:16;6.90;99.90
5061;DHT22;2549;52.128;21.068;2023-12-14T12:57:43;6.90;99.90
5061;DHT22;2549;52.128;21.068;2023-12-14T13:00:10;6.90;99.90
5061;DHT22;2549;52.128;21.068;2023-12-14T13:02:39;6.90;99.90
5061;DHT22;2549;52.128;21.068;2023-12-14T13:05:07;6.90;99.90
5061;DHT22;2549;52.128;21.068;2023-12-14T13:07:36;6.80;99.90
5061;DHT22;2549;52.128;21.068;2023-12-14T13:10:05;6.80;99.90
5061;DHT22;2549;52.128;21.068;2023-12-14T13:12:50;6.80;99.90
5061;DHT22;2549;52.128;21.068;2023-12-14T13:15:17;6.70;99.90
5061;DHT22;2549;52.128;21.068;2023-12-14T13:17:45;6.70;99.90
5061;DHT22;2549;52.128;21.068;2023-12-14T13:20:12;6.70;99.90
5061;DHT22;2549;52.128;21.068;2023-12-14T13:22:39;6.70;99.90
5061;DHT22;2549;52.128;21.068;2023-12-14T13:25:07;6.70;99.90
5061;DHT22;2549;52.128;21.068;2023-12-14T13:27:33;6.70;99.90
5061;DHT22;2549;52.128;21.068;2023-12-14T13:30:04;6.70;99.90
5061;DHT22;2549;52.128;21.068;2023-12-14T13:32:32;6.70;99.90
5061;DHT22;2549;52.128;21.068;2023-12-14T13:34:59;6.70;99.90
5061;DHT22;2549;52.128;21.068;2023-12-14T13:37:27;6.70;99.90
5061;DHT22;2549;52.128;21.068;2023-12-14T13:39:54;6.70;99.90
5061;DHT22;2549;52.128;21.068;2023-12-14T13:42:21;6.70;99.90
5061;DHT22;2549;52.128;21.068;2023-12-14T13:44:48;6.70;99.90
5061;DHT22;2549;52.128;21.068;2023-12-14T13:47:14;6.70;99.90
5061;DHT22;2549;52.128;21.068;2023-12-14T13:49:41;6.70;99.90
5061;DHT22;2549;52.128;21.068;2023-12-14T13:52:08;6.70;99.90
5061;DHT22;2549;52.128;21.068;2023-12-14T13:54:35;6.70;99.90
5061;DHT22;2549;52.128;21.068;2023-12-14T13:57:05;6.70;99.90
5061;DHT22;2549;52.128;21.068;2023-12-14T13:59:32;6.70;99.90
5061;DHT22;2549;52.128;21.068;2023-12-14T14:01:59;6.70;99.90
5061;DHT22;2549;52.128;21.068;2023-12-14T14:04:26;6.70;99.90
5061;DHT22;2549;52.128;21.068;2023-12-14T14:06:53;6.70;99.90
5061;DHT22;2549;52.128;21.068;2023-12-14T14:09:20;6.70;99.90
5061;DHT22;2549;52.128;21.068;2023-12-14T14:11:47;6.70;99.90
5061;DHT22;2549;52.128;21.068;2023-12-14T14:14:16;6.70;99.90
5061;DHT22;2549;52.128;21.068;2023-12-14T14:16:43;6.70;99.90
5061;DHT22;2549;52.128;21.068;2023-12-14T14:19:10;6.70;99.90
5061;DHT22;2549;52.128;21.068;2023-12-14T14:21:37;6.70;99.90
5061;DHT22;2549;52.128;21.068;2023-12-14T14:24:04;6.60;99.90
5061;DHT22;2549;52.128;21.068;2023-12-14T14:26:32;6.60;99.90
5061;DHT22;2549;52.128;21.068;2023-12-14T14:28:59;6.60;99.90
5061;DHT22;2549;52.128;21.068;2023-12-14T14:31:29;6.70;99.90
5061;DHT22;2549;52.128;21.068;2023-12-14T14:33:59;6.70;99.90
5061;DHT22;2549;52.128;21.068;2023-12-14T14:36:29;6.70;99.90
5061;DHT22;2549;52.128;21.068;2023-12-14T14:38:56;6.60;99.90
5061;DHT22;2549;52.128;21.068;2023-12-14T14:41:24;6.60;99.90
5061;DHT22;2549;52.128;21.068;2023-12-14T14:43:52;6.60;99.90
5061;DHT22;2549;52.128;21.068;2023-12-14T14:46:19;6.60;99.90
5061;DHT22;2549;52.128;21.068;2023-12-14T14:48:46;6.60;99.90
5061;DHT22;2549;52.128;21.068;2023-12-14T14:51:14;6.60;99.90
5061;DHT22;2549;52.128;21.068;2023-12-14T14:53:41;6.60;99.90
5061;DHT22;2549;52.128;21.068;2023-12-14T14:56:10;6.70;99.90
5061;DHT22;2549;52.128;21.068;2023-12-14T14:58:37;6.60;99.90
5061;DHT22;2549;52.128;21.068;2023-12-14T15:01:04;6.60;99.90
5061;DHT22;2549;52.128;21.068;2023-12-14T15:03:31;6.60;99.90
5061;DHT22;2549;52.128;21.068;2023-12-14T15:05:58;6.70;99.90
5061;DHT22;2549;52.128;21.068;2023-12-14T15:08:25;6.60;99.90
5061;DHT22;2549;52.128;21.068;2023-12-14T15:10:52;6.60;99.90
5061;DHT22;2549;52.128;21.068;2023-12-14T15:13:20;6.60;99.90
5061;DHT22;2549;52.128;21.068;2023-12-14T15:15:48;6.60;99.90
5061;DHT22;2549;52.128;21.068;2023-12-14T15:18:15;6.60;99.90
5061;DHT22;2549;52.128;21.068;2023-12-14T15:20:42;6.60;99.90
5061;DHT22;2549;52.128;21.068;2023-12-14T15:23:09;6.60;99.90
5061;DHT22;2549;52.128;21.068;2023-12-14T15:25:36;6.60;99.90
5061;DHT22;2549;52.128;21.068;2023-12-14T15:28:02;6.50;99.90
5061;DHT22;2549;52.128;21.068;2023-12-14T15:30:30;6.50;99.90
5061;DHT22;2549;52.128;21.068;2023-12-14T15:32:57;6.50;99.90
5061;DHT22;2549;52.128;21.068;2023-12-14T15:35:24;6.50;99.90
5061;DHT22;2549;52.128;21.068;2023-12-14T15:37:52;6.50;99.90
5061;DHT22;2549;52.128;21.068;2023-12-14T15:40:19;6.50;99.90
5061;DHT22;2549;52.128;21.068;2023-12-14T15:42:45;6.50;99.90
5061;DHT22;2549;52.128;21.068;2023-12-14T15:45:18;6.50;99.90
5061;DHT22;2549;52.128;21.068;2023-12-14T15:47:47;6.50;99.90
5061;DHT22;2549;52.128;21.068;2023-12-14T15:50:14;6.50;99.90
5061;DHT22;2549;52.128;21.068;2023-12-14T15:52:42;6.50;99.90
5061;DHT22;2549;52.128;21.068;2023-12-14T15:55:09;6.50;99.90
5061;DHT22;2549;52.128;21.068;2023-12-14T15:57:36;6.50;99.90
5061;DHT22;2549;52.128;21.068;2023-12-14T16:00:04;6.50;99.90
5061;DHT22;2549;52.128;21.068;2023-12-14T16:02:31;6.50;99.90
5061;DHT22;2549;52.128;21.068;2023-12-14T16:05:01;6.50;99.90
5061;DHT22;2549;52.128;21.068;2023-12-14T16:07:29;6.50;99.90
5061;DHT22;2549;52.128;21.068;2023-12-14T16:09:56;6.50;99.90